sensor_id;sensor_type;location;lat;lon;timestamp;pressure;altitude;pressure_sealevel;temperature
19196;BMP280;9730;48.926;11.376;2023-01-28T00:01:25;97833.03;;;0.16
19196;BMP280;9730;48.926;11.376;2023-01-28T00:03:51;97823.09;;;0.22
19196;BMP280;9730;48.926;11.376;2023-01-28T00:06:19;97830.53;;;0.32
19196;BMP280;9730;48.926;11.376;2023-01-28T00:08:47;97827.22;;;0.24
19196;BMP280;9730;48.926;11.376;2023-01-28T00:11:13;97832.19;;;0.21
19196;BMP280;9730;48.926;11.376;2023-01-28T00:13:40;97833.00;;;0.22
19196;BMP280;9730;48.926;11.376;2023-01-28T00:16:07;97828.91;;;0.07
19196;BMP280;9730;48.926;11.376;2023-01-28T00:18:35;97828.06;;;0.14
19196;BMP280;9730;48.926;11.376;2023-01-28T00:21:03;97828.06;;;0.04
19196;BMP280;9730;48.926;11.376;2023-01-28T00:23:33;97832.19;;;0.17
19196;BMP280;9730;48.926;11.376;2023-01-28T00:26:01;97828.03;;;0.23
19196;BMP280;9730;48.926;11.376;2023-01-28T00:28:28;97837.97;;;0.37
19196;BMP280;9730;48.926;11.376;2023-01-28T00:30:55;97839.63;;;0.26
19196;BMP280;9730;48.926;11.376;2023-01-28T00:33:22;97840.47;;;0.17
19196;BMP280;9730;48.926;11.376;2023-01-28T00:35:56;97846.22;;;0.33
19196;BMP280;9730;48.926;11.376;2023-01-28T00:38:23;97846.25;;;0.28
19196;BMP280;9730;48.926;11.376;2023-01-28T00:40:51;97837.94;;;0.43
19196;BMP280;9730;48.926;11.376;2023-01-28T00:43:17;97851.19;;;0.34
19196;BMP280;9730;48.926;11.376;2023-01-28T00:45:44;97845.41;;;0.32
19196;BMP280;9730;48.926;11.376;2023-01-28T00:48:10;97842.94;;;0.34
19196;BMP280;9730;48.926;11.376;2023-01-28T00:50:37;97841.25;;;0.43
19196;BMP280;9730;48.926;11.376;2023-01-28T00:53:04;97840.47;;;0.26
19196;BMP280;9730;48.926;11.376;2023-01-28T00:55:31;97837.13;;;0.44
19196;BMP280;9730;48.926;11.376;2023-01-28T00:57:58;97843.72;;;0.53
19196;BMP280;9730;48.926;11.376;2023-01-28T01:00:25;97857.78;;;0.65
19196;BMP280;9730;48.926;11.376;2023-01-28T01:02:51;97856.97;;;0.52
19196;BMP280;9730;48.926;11.376;2023-01-28T01:05:18;97849.50;;;0.48
19196;BMP280;9730;48.926;11.376;2023-01-28T01:07:44;97842.06;;;0.54
19196;BMP280;9730;48.926;11.376;2023-01-28T01:10:12;97851.19;;;0.45
19196;BMP280;9730;48.926;11.376;2023-01-28T01:12:40;97844.56;;;0.44
19196;BMP280;9730;48.926;11.376;2023-01-28T01:15:09;97843.72;;;0.51
19196;BMP280;9730;48.926;11.376;2023-01-28T01:17:36;97844.53;;;0.50
19196;BMP280;9730;48.926;11.376;2023-01-28T01:20:08;97838.78;;;0.37
19196;BMP280;9730;48.926;11.376;2023-01-28T01:22:35;97839.59;;;0.47
19196;BMP280;9730;48.926;11.376;2023-01-28T01:25:03;97847.88;;;0.46
19196;BMP280;9730;48.926;11.376;2023-01-28T01:27:30;97852.81;;;0.57
19196;BMP280;9730;48.926;11.376;2023-01-28T01:29:57;97857.75;;;0.62
19196;BMP280;9730;48.926;11.376;2023-01-28T01:32:28;97860.25;;;0.68
19196;BMP280;9730;48.926;11.376;2023-01-28T01:34:55;97866.03;;;0.67
19196;BMP280;9730;48.926;11.376;2023-01-28T01:37:23;97867.69;;;0.59
19196;BMP280;9730;48.926;11.376;2023-01-28T01:39:50;97858.63;;;0.58
19196;BMP280;9730;48.926;11.376;2023-01-28T01:42:16;97863.59;;;0.48
19196;BMP280;9730;48.926;11.376;2023-01-28T01:44:53;97849.53;;;0.47
19196;BMP280;9730;48.926;11.376;2023-01-28T01:47:22;97852.03;;;0.26
19196;BMP280;9730;48.926;11.376;2023-01-28T01:49:50;97845.41;;;0.34
19196;BMP280;9730;48.926;11.376;2023-01-28T01:52:21;97847.88;;;0.46
19196;BMP280;9730;48.926;11.376;2023-01-28T01:54:52;97860.28;;;0.38
19196;BMP280;9730;48.926;11.376;2023-01-28T01:57:23;97847.88;;;0.52
19196;BMP280;9730;48.926;11.376;2023-01-28T01:59:52;97857.75;;;0.59
19196;BMP280;9730;48.926;11.376;2023-01-28T02:02:19;97856.13;;;0.58
19196;BMP280;9730;48.926;11.376;2023-01-28T02:04:46;97868.53;;;0.56
19196;BMP280;9730;48.926;11.376;2023-01-28T02:07:17;97864.41;;;0.52
19196;BMP280;9730;48.926;11.376;2023-01-28T02:09:44;97870.22;;;0.52
19196;BMP280;9730;48.926;11.376;2023-01-28T02:12:13;97863.59;;;0.49
19196;BMP280;9730;48.926;11.376;2023-01-28T02:14:44;97866.03;;;0.56
19196;BMP280;9730;48.926;11.376;2023-01-28T02:17:13;97862.75;;;0.52
19196;BMP280;9730;48.926;11.376;2023-01-28T02:19:44;97874.31;;;0.61
19196;BMP280;9730;48.926;11.376;2023-01-28T02:22:44;97867.72;;;0.53
19196;BMP280;9730;48.926;11.376;2023-01-28T02:28:20;97866.06;;;0.62
19196;BMP280;9730;48.926;11.376;2023-01-28T02:30:53;97877.63;;;0.65
19196;BMP280;9730;48.926;11.376;2023-01-28T02:33:28;97876.00;;;0.59
19196;BMP280;9730;48.926;11.376;2023-01-28T02:35:57;97876.00;;;0.45
19196;BMP280;9730;48.926;11.376;2023-01-28T02:38:30;97878.47;;;0.58
19196;BMP280;9730;48.926;11.376;2023-01-28T02:41:01;97882.63;;;0.63
19196;BMP280;9730;48.926;11.376;2023-01-28T02:43:36;97885.91;;;0.61
19196;BMP280;9730;48.926;11.376;2023-01-28T02:46:12;97891.69;;;0.64
19196;BMP280;9730;48.926;11.376;2023-01-28T02:48:58;97892.53;;;0.65
19196;BMP280;9730;48.926;11.376;2023-01-28T02:51:32;97892.53;;;0.60
19196;BMP280;9730;48.926;11.376;2023-01-28T02:54:09;97889.22;;;0.58
19196;BMP280;9730;48.926;11.376;2023-01-28T02:56:42;97889.25;;;0.55
19196;BMP280;9730;48.926;11.376;2023-01-28T02:59:13;97889.22;;;0.60
19196;BMP280;9730;48.926;11.376;2023-01-28T03:02:07;97894.19;;;0.58
19196;BMP280;9730;48.926;11.376;2023-01-28T03:04:40;97884.25;;;0.61
19196;BMP280;9730;48.926;11.376;2023-01-28T03:07:11;97882.63;;;0.54
19196;BMP280;9730;48.926;11.376;2023-01-28T03:09:41;97883.44;;;0.59
19196;BMP280;9730;48.926;11.376;2023-01-28T03:12:10;97883.44;;;0.64
19196;BMP280;9730;48.926;11.376;2023-01-28T03:14:59;97889.22;;;0.61
19196;BMP280;9730;48.926;11.376;2023-01-28T03:17:47;97893.38;;;0.58
19196;BMP280;9730;48.926;11.376;2023-01-28T03:20:37;97883.41;;;0.56
19196;BMP280;9730;48.926;11.376;2023-01-28T03:23:27;97877.66;;;0.52
19196;BMP280;9730;48.926;11.376;2023-01-28T03:26:14;97878.47;;;0.48
19196;BMP280;9730;48.926;11.376;2023-01-28T03:29:05;97888.38;;;0.67
19196;BMP280;9730;48.926;11.376;2023-01-28T03:31:52;97881.75;;;0.64
19196;BMP280;9730;48.926;11.376;2023-01-28T03:34:37;97895.00;;;0.68
19196;BMP280;9730;48.926;11.376;2023-01-28T03:37:21;97895.00;;;0.69
19196;BMP280;9730;48.926;11.376;2023-01-28T03:40:01;97884.28;;;0.55
19196;BMP280;9730;48.926;11.376;2023-01-28T03:42:30;97890.06;;;0.52
19196;BMP280;9730;48.926;11.376;2023-01-28T03:45:21;97892.53;;;0.65
19196;BMP280;9730;48.926;11.376;2023-01-28T03:47:49;97900.81;;;0.62
19196;BMP280;9730;48.926;11.376;2023-01-28T03:50:16;97899.97;;;0.66
19196;BMP280;9730;48.926;11.376;2023-01-28T03:53:01;97900.78;;;0.70
19196;BMP280;9730;48.926;11.376;2023-01-28T03:55:46;97900.78;;;0.74
19196;BMP280;9730;48.926;11.376;2023-01-28T03:58:14;97910.72;;;0.83
19196;BMP280;9730;48.926;11.376;2023-01-28T04:00:41;97909.91;;;0.62
19196;BMP280;9730;48.926;11.376;2023-01-28T04:03:12;97897.50;;;0.52
19196;BMP280;9730;48.926;11.376;2023-01-28T04:05:44;97890.06;;;0.49
19196;BMP280;9730;48.926;11.376;2023-01-28T04:08:11;97898.34;;;0.61
19196;BMP280;9730;48.926;11.376;2023-01-28T04:10:56;97896.69;;;0.55
19196;BMP280;9730;48.926;11.376;2023-01-28T04:13:27;97893.38;;;0.48
19196;BMP280;9730;48.926;11.376;2023-01-28T04:15:53;97904.97;;;0.47
19196;BMP280;9730;48.926;11.376;2023-01-28T04:18:21;97899.97;;;0.56
19196;BMP280;9730;48.926;11.376;2023-01-28T04:20:52;97905.78;;;0.59
19196;BMP280;9730;48.926;11.376;2023-01-28T04:23:18;97910.75;;;0.58
19196;BMP280;9730;48.926;11.376;2023-01-28T04:25:48;97906.63;;;0.51
19196;BMP280;9730;48.926;11.376;2023-01-28T04:28:15;97916.53;;;0.61
19196;BMP280;9730;48.926;11.376;2023-01-28T04:30:41;97919.03;;;0.70
19196;BMP280;9730;48.926;11.376;2023-01-28T04:33:31;97906.59;;;0.66
19196;BMP280;9730;48.926;11.376;2023-01-28T04:36:24;97904.16;;;0.39
19196;BMP280;9730;48.926;11.376;2023-01-28T04:39:09;97911.56;;;0.60
19196;BMP280;9730;48.926;11.376;2023-01-28T04:41:36;97925.63;;;0.51
19196;BMP280;9730;48.926;11.376;2023-01-28T04:44:11;97909.91;;;0.44
19196;BMP280;9730;48.926;11.376;2023-01-28T04:47:01;97912.41;;;0.47
19196;BMP280;9730;48.926;11.376;2023-01-28T04:49:41;97899.16;;;0.48
19196;BMP280;9730;48.926;11.376;2023-01-28T04:52:37;97911.56;;;0.45
19196;BMP280;9730;48.926;11.376;2023-01-28T04:55:16;97920.69;;;0.42
19196;BMP280;9730;48.926;11.376;2023-01-28T04:57:46;97914.06;;;0.42
19196;BMP280;9730;48.926;11.376;2023-01-28T05:00:13;97922.34;;;0.40
19196;BMP280;9730;48.926;11.376;2023-01-28T05:02:40;97919.03;;;0.44
19196;BMP280;9730;48.926;11.376;2023-01-28T05:05:08;97909.94;;;0.29
19196;BMP280;9730;48.926;11.376;2023-01-28T05:07:54;97920.66;;;0.52
19196;BMP280;9730;48.926;11.376;2023-01-28T05:10:22;97932.25;;;0.56
19196;BMP280;9730;48.926;11.376;2023-01-28T05:12:49;97932.28;;;0.52
19196;BMP280;9730;48.926;11.376;2023-01-28T05:15:17;97930.59;;;0.56
19196;BMP280;9730;48.926;11.376;2023-01-28T05:17:45;97918.19;;;0.37
19196;BMP280;9730;48.926;11.376;2023-01-28T05:20:15;97914.91;;;0.32
19196;BMP280;9730;48.926;11.376;2023-01-28T05:22:44;97915.72;;;0.27
19196;BMP280;9730;48.926;11.376;2023-01-28T05:25:16;97918.19;;;0.37
19196;BMP280;9730;48.926;11.376;2023-01-28T05:27:48;97918.19;;;0.31
19196;BMP280;9730;48.926;11.376;2023-01-28T05:30:16;97927.28;;;0.43
19196;BMP280;9730;48.926;11.376;2023-01-28T05:32:42;97935.56;;;0.56
19196;BMP280;9730;48.926;11.376;2023-01-28T05:35:09;97938.88;;;0.58
19196;BMP280;9730;48.926;11.376;2023-01-28T05:37:38;97933.94;;;0.51
19196;BMP280;9730;48.926;11.376;2023-01-28T05:40:05;97942.19;;;0.54
19196;BMP280;9730;48.926;11.376;2023-01-28T05:42:32;97938.88;;;0.58
19196;BMP280;9730;48.926;11.376;2023-01-28T05:45:18;97934.75;;;0.53
19196;BMP280;9730;48.926;11.376;2023-01-28T05:48:01;97928.97;;;0.41
19196;BMP280;9730;48.926;11.376;2023-01-28T05:50:41;97938.06;;;0.49
19196;BMP280;9730;48.926;11.376;2023-01-28T05:53:16;97933.09;;;0.48
19196;BMP280;9730;48.926;11.376;2023-01-28T05:55:47;97938.03;;;0.56
19196;BMP280;9730;48.926;11.376;2023-01-28T05:58:13;97944.69;;;0.50
19196;BMP280;9730;48.926;11.376;2023-01-28T06:00:41;97939.69;;;0.44
19196;BMP280;9730;48.926;11.376;2023-01-28T06:03:07;97940.53;;;0.46
19196;BMP280;9730;48.926;11.376;2023-01-28T06:05:35;97956.25;;;0.66
19196;BMP280;9730;48.926;11.376;2023-01-28T06:08:01;97956.25;;;0.63
19196;BMP280;9730;48.926;11.376;2023-01-28T06:10:29;97966.16;;;0.69
19196;BMP280;9730;48.926;11.376;2023-01-28T06:12:56;97959.56;;;0.62
19196;BMP280;9730;48.926;11.376;2023-01-28T06:15:35;97965.34;;;0.68
19196;BMP280;9730;48.926;11.376;2023-01-28T06:18:15;97963.72;;;0.73
19196;BMP280;9730;48.926;11.376;2023-01-28T06:20:41;97962.06;;;0.63
19196;BMP280;9730;48.926;11.376;2023-01-28T06:23:08;97967.03;;;0.53
19196;BMP280;9730;48.926;11.376;2023-01-28T06:25:36;97957.91;;;0.46
19196;BMP280;9730;48.926;11.376;2023-01-28T06:28:08;97970.34;;;0.46
19196;BMP280;9730;48.926;11.376;2023-01-28T06:30:34;97972.81;;;0.52
19196;BMP280;9730;48.926;11.376;2023-01-28T06:33:01;97975.28;;;0.48
19196;BMP280;9730;48.926;11.376;2023-01-28T06:35:27;97973.63;;;0.48
19196;BMP280;9730;48.926;11.376;2023-01-28T06:37:54;97972.81;;;0.48
19196;BMP280;9730;48.926;11.376;2023-01-28T06:40:20;97971.16;;;0.44
19196;BMP280;9730;48.926;11.376;2023-01-28T06:42:48;97985.25;;;0.59
19196;BMP280;9730;48.926;11.376;2023-01-28T06:45:15;97995.16;;;0.68
19196;BMP280;9730;48.926;11.376;2023-01-28T06:47:41;97986.88;;;0.56
19196;BMP280;9730;48.926;11.376;2023-01-28T06:50:09;97995.13;;;0.55
19196;BMP280;9730;48.926;11.376;2023-01-28T06:52:36;98007.59;;;0.79
19196;BMP280;9730;48.926;11.376;2023-01-28T06:55:02;98006.75;;;0.68
19196;BMP280;9730;48.926;11.376;2023-01-28T06:57:29;98015.03;;;0.62
19196;BMP280;9730;48.926;11.376;2023-01-28T06:59:57;98005.94;;;0.54
19196;BMP280;9730;48.926;11.376;2023-01-28T07:02:23;98009.22;;;0.54
19196;BMP280;9730;48.926;11.376;2023-01-28T07:04:50;98025.78;;;0.54
19196;BMP280;9730;48.926;11.376;2023-01-28T07:07:16;98017.50;;;0.58
19196;BMP280;9730;48.926;11.376;2023-01-28T07:09:43;98025.78;;;0.52
19196;BMP280;9730;48.926;11.376;2023-01-28T07:12:09;98023.31;;;0.55
19196;BMP280;9730;48.926;11.376;2023-01-28T07:14:36;98024.94;;;0.52
19196;BMP280;9730;48.926;11.376;2023-01-28T07:17:03;98024.94;;;0.65
19196;BMP280;9730;48.926;11.376;2023-01-28T07:19:30;98033.22;;;0.64
19196;BMP280;9730;48.926;11.376;2023-01-28T07:21:56;98034.88;;;0.68
19196;BMP280;9730;48.926;11.376;2023-01-28T07:24:25;98034.88;;;0.68
19196;BMP280;9730;48.926;11.376;2023-01-28T07:26:51;98037.38;;;0.73
19196;BMP280;9730;48.926;11.376;2023-01-28T07:29:18;98045.66;;;0.76
19196;BMP280;9730;48.926;11.376;2023-01-28T07:31:44;98044.00;;;0.77
19196;BMP280;9730;48.926;11.376;2023-01-28T07:34:12;98050.63;;;0.76
19196;BMP280;9730;48.926;11.376;2023-01-28T07:36:39;98053.91;;;0.80
19196;BMP280;9730;48.926;11.376;2023-01-28T07:39:05;98056.41;;;0.80
19196;BMP280;9730;48.926;11.376;2023-01-28T07:41:32;98063.84;;;0.80
19196;BMP280;9730;48.926;11.376;2023-01-28T07:44:04;98053.09;;;0.81
19196;BMP280;9730;48.926;11.376;2023-01-28T07:46:30;98059.72;;;0.83
19196;BMP280;9730;48.926;11.376;2023-01-28T07:48:57;98051.44;;;0.78
19196;BMP280;9730;48.926;11.376;2023-01-28T07:51:25;98057.25;;;0.85
19196;BMP280;9730;48.926;11.376;2023-01-28T07:53:52;98064.69;;;0.80
19196;BMP280;9730;48.926;11.376;2023-01-28T07:56:18;98058.88;;;0.81
19196;BMP280;9730;48.926;11.376;2023-01-28T07:58:48;98063.88;;;0.95
19196;BMP280;9730;48.926;11.376;2023-01-28T08:01:14;98068.81;;;1.15
19196;BMP280;9730;48.926;11.376;2023-01-28T08:03:42;98077.94;;;1.06
19196;BMP280;9730;48.926;11.376;2023-01-28T08:06:08;98077.94;;;0.97
19196;BMP280;9730;48.926;11.376;2023-01-28T08:08:37;98078.78;;;1.05
19196;BMP280;9730;48.926;11.376;2023-01-28T08:11:06;98082.91;;;1.03
19196;BMP280;9730;48.926;11.376;2023-01-28T08:13:33;98087.88;;;1.03
19196;BMP280;9730;48.926;11.376;2023-01-28T08:16:00;98080.44;;;1.10
19196;BMP280;9730;48.926;11.376;2023-01-28T08:18:26;98082.91;;;1.07
19196;BMP280;9730;48.926;11.376;2023-01-28T08:20:54;98071.31;;;0.96
19196;BMP280;9730;48.926;11.376;2023-01-28T08:23:20;98088.72;;;1.05
19196;BMP280;9730;48.926;11.376;2023-01-28T08:25:48;98085.38;;;1.04
19196;BMP280;9730;48.926;11.376;2023-01-28T08:28:15;98089.53;;;1.01
19196;BMP280;9730;48.926;11.376;2023-01-28T08:30:42;98082.91;;;0.94
19196;BMP280;9730;48.926;11.376;2023-01-28T08:33:11;98085.41;;;1.00
19196;BMP280;9730;48.926;11.376;2023-01-28T08:35:38;98077.13;;;1.19
19196;BMP280;9730;48.926;11.376;2023-01-28T08:38:06;98068.00;;;1.15
19196;BMP280;9730;48.926;11.376;2023-01-28T08:40:33;98076.25;;;1.32
19196;BMP280;9730;48.926;11.376;2023-01-28T08:43:01;98081.22;;;1.44
19196;BMP280;9730;48.926;11.376;2023-01-28T08:45:28;98074.59;;;1.40
19196;BMP280;9730;48.926;11.376;2023-01-28T08:47:57;98076.25;;;1.38
19196;BMP280;9730;48.926;11.376;2023-01-28T08:50:25;98063.84;;;1.18
19196;BMP280;9730;48.926;11.376;2023-01-28T08:52:56;98066.31;;;1.32
19196;BMP280;9730;48.926;11.376;2023-01-28T08:55:23;98079.59;;;1.28
19196;BMP280;9730;48.926;11.376;2023-01-28T08:57:50;98064.69;;;1.16
19196;BMP280;9730;48.926;11.376;2023-01-28T09:00:20;98068.00;;;1.21
19196;BMP280;9730;48.926;11.376;2023-01-28T09:02:49;98058.88;;;1.24
19196;BMP280;9730;48.926;11.376;2023-01-28T09:05:16;98064.66;;;1.26
19196;BMP280;9730;48.926;11.376;2023-01-28T09:07:43;98064.66;;;1.43
19196;BMP280;9730;48.926;11.376;2023-01-28T09:10:10;98063.00;;;1.39
19196;BMP280;9730;48.926;11.376;2023-01-28T09:12:36;98060.50;;;1.52
19196;BMP280;9730;48.926;11.376;2023-01-28T09:15:04;98058.81;;;1.54
19196;BMP280;9730;48.926;11.376;2023-01-28T09:17:32;98071.19;;;1.72
19196;BMP280;9730;48.926;11.376;2023-01-28T09:19:59;98069.56;;;1.74
19196;BMP280;9730;48.926;11.376;2023-01-28T09:22:25;98081.09;;;1.88
19196;BMP280;9730;48.926;11.376;2023-01-28T09:24:52;98085.28;;;1.74
19196;BMP280;9730;48.926;11.376;2023-01-28T09:27:18;98077.81;;;1.76
19196;BMP280;9730;48.926;11.376;2023-01-28T09:29:45;98096.78;;;2.07
19196;BMP280;9730;48.926;11.376;2023-01-28T09:32:11;98091.91;;;1.78
19196;BMP280;9730;48.926;11.376;2023-01-28T09:34:39;98083.66;;;1.67
19196;BMP280;9730;48.926;11.376;2023-01-28T09:37:06;98072.88;;;1.59
19196;BMP280;9730;48.926;11.376;2023-01-28T09:39:32;98065.47;;;1.37
19196;BMP280;9730;48.926;11.376;2023-01-28T09:42:13;98072.88;;;1.61
19196;BMP280;9730;48.926;11.376;2023-01-28T09:44:54;98091.91;;;1.81
19196;BMP280;9730;48.926;11.376;2023-01-28T09:47:25;98094.41;;;1.80
19196;BMP280;9730;48.926;11.376;2023-01-28T09:49:57;98072.94;;;1.48
19196;BMP280;9730;48.926;11.376;2023-01-28T09:52:25;98077.84;;;1.61
19196;BMP280;9730;48.926;11.376;2023-01-28T09:54:55;98088.56;;;1.91
19196;BMP280;9730;48.926;11.376;2023-01-28T09:57:27;98091.84;;;1.98
19196;BMP280;9730;48.926;11.376;2023-01-28T10:02:36;98095.97;;;2.06
19196;BMP280;9730;48.926;11.376;2023-01-28T10:05:16;98087.69;;;2.00
19196;BMP280;9730;48.926;11.376;2023-01-28T10:07:52;98086.78;;;2.17
19196;BMP280;9730;48.926;11.376;2023-01-28T10:10:26;98081.06;;;2.00
19196;BMP280;9730;48.926;11.376;2023-01-28T10:13:03;98074.47;;;1.92
19196;BMP280;9730;48.926;11.376;2023-01-28T10:15:46;98071.94;;;1.98
19196;BMP280;9730;48.926;11.376;2023-01-28T10:18:20;98080.16;;;2.22
19196;BMP280;9730;48.926;11.376;2023-01-28T10:20:54;98085.97;;;2.10
19196;BMP280;9730;48.926;11.376;2023-01-28T10:23:26;98081.00;;;2.13
19196;BMP280;9730;48.926;11.376;2023-01-28T10:25:55;98061.97;;;1.99
19196;BMP280;9730;48.926;11.376;2023-01-28T10:28:27;98068.66;;;1.97
19196;BMP280;9730;48.926;11.376;2023-01-28T10:30:53;98062.84;;;1.83
19196;BMP280;9730;48.926;11.376;2023-01-28T10:33:34;98073.56;;;2.05
19196;BMP280;9730;48.926;11.376;2023-01-28T10:36:03;98079.34;;;2.07
19196;BMP280;9730;48.926;11.376;2023-01-28T10:38:30;98070.31;;;1.92
19196;BMP280;9730;48.926;11.376;2023-01-28T10:40:59;98079.38;;;2.10
19196;BMP280;9730;48.926;11.376;2023-01-28T10:43:29;98071.09;;;2.02
19196;BMP280;9730;48.926;11.376;2023-01-28T10:45:58;98073.56;;;2.08
19196;BMP280;9730;48.926;11.376;2023-01-28T10:48:29;98071.13;;;2.00
19196;BMP280;9730;48.926;11.376;2023-01-28T10:50:59;98064.50;;;1.96
19196;BMP280;9730;48.926;11.376;2023-01-28T10:53:38;98066.13;;;2.00
19196;BMP280;9730;48.926;11.376;2023-01-28T10:56:07;98055.38;;;1.94
19196;BMP280;9730;48.926;11.376;2023-01-28T10:58:36;98062.03;;;1.93
19196;BMP280;9730;48.926;11.376;2023-01-28T11:01:12;98047.91;;;1.91
19196;BMP280;9730;48.926;11.376;2023-01-28T11:03:50;98061.97;;;2.01
19196;BMP280;9730;48.926;11.376;2023-01-28T11:06:23;98059.47;;;2.05
19196;BMP280;9730;48.926;11.376;2023-01-28T11:08:51;98050.34;;;2.07
19196;BMP280;9730;48.926;11.376;2023-01-28T11:11:23;98059.38;;;2.23
19196;BMP280;9730;48.926;11.376;2023-01-28T11:13:51;98052.78;;;2.16
19196;BMP280;9730;48.926;11.376;2023-01-28T11:16:19;98052.03;;;2.01
19196;BMP280;9730;48.926;11.376;2023-01-28T11:18:49;98056.19;;;2.00
19196;BMP280;9730;48.926;11.376;2023-01-28T11:21:19;98053.72;;;1.97
19196;BMP280;9730;48.926;11.376;2023-01-28T11:23:50;98052.88;;;1.94
19196;BMP280;9730;48.926;11.376;2023-01-28T11:26:20;98038.88;;;1.72
19196;BMP280;9730;48.926;11.376;2023-01-28T11:28:49;98042.16;;;1.71
19196;BMP280;9730;48.926;11.376;2023-01-28T11:31:18;98057.03;;;1.96
19196;BMP280;9730;48.926;11.376;2023-01-28T11:33:49;98042.13;;;1.86
19196;BMP280;9730;48.926;11.376;2023-01-28T11:36:17;98055.34;;;1.97
19196;BMP280;9730;48.926;11.376;2023-01-28T11:38:51;98047.94;;;1.82
19196;BMP280;9730;48.926;11.376;2023-01-28T11:41:26;98057.03;;;1.89
19196;BMP280;9730;48.926;11.376;2023-01-28T11:43:54;98045.44;;;1.92
19196;BMP280;9730;48.926;11.376;2023-01-28T11:46:35;98056.19;;;1.91
19196;BMP280;9730;48.926;11.376;2023-01-28T11:49:11;98057.00;;;1.99
19196;BMP280;9730;48.926;11.376;2023-01-28T11:51:45;98056.19;;;1.97
19196;BMP280;9730;48.926;11.376;2023-01-28T11:54:24;98044.56;;;1.99
19196;BMP280;9730;48.926;11.376;2023-01-28T11:57:06;98041.22;;;2.06
19196;BMP280;9730;48.926;11.376;2023-01-28T11:59:49;98039.66;;;1.84
19196;BMP280;9730;48.926;11.376;2023-01-28T12:02:29;98037.97;;;1.83
19196;BMP280;9730;48.926;11.376;2023-01-28T12:05:11;98035.53;;;1.74
19196;BMP280;9730;48.926;11.376;2023-01-28T12:07:45;98041.31;;;1.76
19196;BMP280;9730;48.926;11.376;2023-01-28T12:10:19;98039.69;;;1.75
19196;BMP280;9730;48.926;11.376;2023-01-28T12:13:06;98043.81;;;1.75
19196;BMP280;9730;48.926;11.376;2023-01-28T12:18:47;98052.06;;;1.89
19196;BMP280;9730;48.926;11.376;2023-01-28T12:21:21;98052.06;;;1.96
19196;BMP280;9730;48.926;11.376;2023-01-28T12:24:02;98054.56;;;1.89
19196;BMP280;9730;48.926;11.376;2023-01-28T12:26:41;98049.59;;;1.83
19196;BMP280;9730;48.926;11.376;2023-01-28T12:29:20;98049.59;;;1.92
19196;BMP280;9730;48.926;11.376;2023-01-28T12:31:56;98058.59;;;2.10
19196;BMP280;9730;48.926;11.376;2023-01-28T12:37:24;98055.41;;;1.86
19196;BMP280;9730;48.926;11.376;2023-01-28T12:40:03;98057.03;;;1.96
19196;BMP280;9730;48.926;11.376;2023-01-28T12:42:36;98056.94;;;2.08
19196;BMP280;9730;48.926;11.376;2023-01-28T12:45:14;98058.66;;;2.00
19196;BMP280;9730;48.926;11.376;2023-01-28T12:47:47;98060.31;;;2.00
19196;BMP280;9730;48.926;11.376;2023-01-28T12:50:19;98063.69;;;1.85
19196;BMP280;9730;48.926;11.376;2023-01-28T12:52:50;98053.75;;;1.82
19196;BMP280;9730;48.926;11.376;2023-01-28T12:55:34;98053.69;;;1.96
19196;BMP280;9730;48.926;11.376;2023-01-28T12:58:04;98059.47;;;2.11
19196;BMP280;9730;48.926;11.376;2023-01-28T13:00:37;98060.34;;;1.95
19196;BMP280;9730;48.926;11.376;2023-01-28T13:03:10;98059.50;;;1.99
19196;BMP280;9730;48.926;11.376;2023-01-28T13:05:43;98052.91;;;1.89
19196;BMP280;9730;48.926;11.376;2023-01-28T13:08:17;98052.91;;;1.88
19196;BMP280;9730;48.926;11.376;2023-01-28T13:10:46;98050.41;;;1.89
19196;BMP280;9730;48.926;11.376;2023-01-28T13:13:16;98049.53;;;2.01
19196;BMP280;9730;48.926;11.376;2023-01-28T13:15:45;98044.53;;;2.11
19196;BMP280;9730;48.926;11.376;2023-01-28T13:18:31;98064.41;;;2.14
19196;BMP280;9730;48.926;11.376;2023-01-28T13:20:58;98064.38;;;2.20
19196;BMP280;9730;48.926;11.376;2023-01-28T13:23:40;98066.06;;;2.13
19196;BMP280;9730;48.926;11.376;2023-01-28T13:26:10;98056.09;;;2.13
19196;BMP280;9730;48.926;11.376;2023-01-28T13:28:37;98061.03;;;2.22
19196;BMP280;9730;48.926;11.376;2023-01-28T13:31:07;98057.72;;;2.20
19196;BMP280;9730;48.926;11.376;2023-01-28T13:33:36;98064.41;;;2.17
19196;BMP280;9730;48.926;11.376;2023-01-28T13:36:15;98071.78;;;2.35
19196;BMP280;9730;48.926;11.376;2023-01-28T13:38:45;98070.09;;;2.34
19196;BMP280;9730;48.926;11.376;2023-01-28T13:41:11;98067.63;;;2.34
19196;BMP280;9730;48.926;11.376;2023-01-28T13:43:40;98061.91;;;2.14
19196;BMP280;9730;48.926;11.376;2023-01-28T13:46:09;98060.22;;;2.19
19196;BMP280;9730;48.926;11.376;2023-01-28T13:48:40;98070.09;;;2.35
19196;BMP280;9730;48.926;11.376;2023-01-28T13:51:18;98069.28;;;2.33
19196;BMP280;9730;48.926;11.376;2023-01-28T13:53:49;98056.88;;;2.24
19196;BMP280;9730;48.926;11.376;2023-01-28T13:56:21;98062.63;;;2.35
19196;BMP280;9730;48.926;11.376;2023-01-28T13:59:05;98065.19;;;2.26
19196;BMP280;9730;48.926;11.376;2023-01-28T14:04:55;98073.56;;;2.08
19196;BMP280;9730;48.926;11.376;2023-01-28T14:07:42;98059.50;;;1.96
19196;BMP280;9730;48.926;11.376;2023-01-28T14:10:26;98060.38;;;1.89
19196;BMP280;9730;48.926;11.376;2023-01-28T14:13:04;98069.50;;;1.81
19196;BMP280;9730;48.926;11.376;2023-01-28T14:15:59;98064.50;;;1.92
19196;BMP280;9730;48.926;11.376;2023-01-28T14:18:35;98068.75;;;1.60
19196;BMP280;9730;48.926;11.376;2023-01-28T14:21:08;98064.56;;;1.66
19196;BMP280;9730;48.926;11.376;2023-01-28T14:23:37;98076.16;;;1.79
19196;BMP280;9730;48.926;11.376;2023-01-28T14:26:22;98081.09;;;1.87
19196;BMP280;9730;48.926;11.376;2023-01-28T14:28:59;98082.78;;;1.86
19196;BMP280;9730;48.926;11.376;2023-01-28T14:31:30;98081.94;;;1.92
19196;BMP280;9730;48.926;11.376;2023-01-28T14:34:06;98091.03;;;1.97
19196;BMP280;9730;48.926;11.376;2023-01-28T14:36:39;98087.69;;;2.01
19196;BMP280;9730;48.926;11.376;2023-01-28T14:39:14;98100.16;;;1.94
19196;BMP280;9730;48.926;11.376;2023-01-28T14:41:43;98105.91;;;2.08
19196;BMP280;9730;48.926;11.376;2023-01-28T14:44:11;98113.34;;;2.16
19196;BMP280;9730;48.926;11.376;2023-01-28T14:46:39;98089.41;;;1.92
19196;BMP280;9730;48.926;11.376;2023-01-28T14:49:11;98096.88;;;1.83
19196;BMP280;9730;48.926;11.376;2023-01-28T14:51:51;98105.97;;;1.90
19196;BMP280;9730;48.926;11.376;2023-01-28T14:54:23;98098.50;;;1.88
19196;BMP280;9730;48.926;11.376;2023-01-28T14:56:54;98093.56;;;1.81
19196;BMP280;9730;48.926;11.376;2023-01-28T14:59:25;98094.38;;;1.87
19196;BMP280;9730;48.926;11.376;2023-01-28T15:01:53;98112.63;;;1.88